Time;durP1;ratioP1;P1;durP2;ratioP2;P2;SDS_P1;SDS_P2;PMS_P1;PMS_P2;Temp;Humidity;BMP_temperature;BMP_pressure;BME280_temperature;BME280_humidity;BME280_pressure;Samples;Min_cycle;Max_cycle;Signal;HPM_P1;HPM_P2
2022/11/19 00:02:26;;;;;;;5.35;3.52;;;7.40;99.90;;;;;;1913418;74;21154;-90
2022/11/19 00:05:18;;;;;;;6.87;4.05;;;7.40;99.90;;;;;;1920193;74;21665;-89
2022/11/19 00:08:10;;;;;;;4.60;3.65;;;7.40;99.90;;;;;;1922401;74;21090;-89
2022/11/19 00:11:07;;;;;;;7.45;3.62;;;7.50;99.90;;;;;;1919969;74;21082;-89
2022/11/19 00:13:58;;;;;;;;;;;7.40;99.90;;;;;;1923313;74;21178;-90
2022/11/19 00:16:51;;;;;;;5.10;3.72;;;7.50;99.90;;;;;;1933338;74;20176;-90
2022/11/19 00:19:42;;;;;;;5.08;3.98;;;7.50;99.90;;;;;;1916411;73;21247;-90
2022/11/19 00:22:34;;;;;;;6.08;4.15;;;7.50;99.90;;;;;;1922648;74;21085;-90
2022/11/19 00:25:28;;;;;;;6.00;3.98;;;7.50;99.90;;;;;;1931128;74;21120;-89
2022/11/19 00:28:20;;;;;;;6.55;4.08;;;7.50;99.90;;;;;;1929145;74;21081;-88
2022/11/19 00:31:16;;;;;;;5.75;4.17;;;7.60;99.90;;;;;;1929083;73;21288;-89
2022/11/19 00:34:08;;;;;;;8.90;4.10;;;7.50;99.90;;;;;;1931442;73;21051;-89
2022/11/19 00:36:59;;;;;;;5.83;4.15;;;7.50;99.90;;;;;;1884166;76;21256;-89
2022/11/19 00:39:50;;;;;;;5.53;3.67;;;7.50;99.90;;;;;;1865398;76;21110;-89
2022/11/19 00:43:45;;;;;;;7.95;4.20;;;7.50;99.90;;;;;;1926579;74;21158;-89
2022/11/19 00:45:34;;;;;;;5.30;4.15;;;7.50;99.90;;;;;;1905254;74;21081;-89
2022/11/19 00:48:25;;;;;;;7.12;4.30;;;7.50;99.90;;;;;;1920528;74;21085;-89
2022/11/19 00:51:18;;;;;;;8.93;4.55;;;7.50;99.90;;;;;;1849649;77;21105;-88
2022/11/19 00:54:09;;;;;;;7.12;4.70;;;7.40;99.90;;;;;;1916483;75;21125;-88
2022/11/19 00:57:00;;;;;;;6.92;4.12;;;7.30;99.90;;;;;;1914310;75;21144;-88
2022/11/19 00:59:52;;;;;;;6.55;4.40;;;7.30;99.90;;;;;;1909033;73;21105;-88
2022/11/19 01:02:43;;;;;;;7.17;4.25;;;7.20;99.90;;;;;;1885434;75;21191;-88
2022/11/19 01:05:35;;;;;;;6.05;4.03;;;7.20;99.90;;;;;;1927885;74;21118;-88
2022/11/19 01:08:27;;;;;;;6.15;4.42;;;7.20;99.90;;;;;;1905365;74;21089;-88
2022/11/19 01:11:20;;;;;;;4.95;4.00;;;7.20;99.90;;;;;;1893497;75;21127;-88
2022/11/19 01:14:11;;;;;;;5.53;3.58;;;7.10;99.90;;;;;;1919093;74;21224;-89
2022/11/19 01:17:03;;;;;;;6.20;4.10;;;7.20;99.90;;;;;;1850758;77;21180;-88
2022/11/19 01:19:54;;;;;;;6.37;4.20;;;7.20;99.90;;;;;;1918198;74;21103;-88
2022/11/19 01:22:46;;;;;;;5.62;3.55;;;7.10;99.90;;;;;;1917088;75;21141;-88
2022/11/19 01:25:37;;;;;;;7.28;3.83;;;7.10;99.90;;;;;;1915436;74;21513;-89
2022/11/19 01:28:29;;;;;;;6.92;3.83;;;7.10;99.90;;;;;;1915529;74;21147;-88
2022/11/19 01:31:23;;;;;;;5.55;3.60;;;7.10;99.90;;;;;;1913176;75;21116;-88
2022/11/19 01:34:14;;;;;;;5.12;3.45;;;7.10;99.90;;;;;;1917760;74;21104;-88
2022/11/19 01:37:06;;;;;;;6.72;3.55;;;7.20;99.90;;;;;;1913511;74;21143;-88
2022/11/19 01:39:57;;;;;;;4.62;3.35;;;7.20;99.90;;;;;;1911217;75;21157;-88
2022/11/19 01:42:53;;;;;;;6.45;3.30;;;7.20;99.90;;;;;;1901844;74;21084;-88
2022/11/19 01:45:47;;;;;;;6.20;3.55;;;7.10;99.90;;;;;;1918145;74;21138;-88
2022/11/19 01:48:41;;;;;;;5.28;3.02;;;7.10;99.90;;;;;;1897533;74;21101;-88
2022/11/19 01:51:38;;;;;;;5.15;3.42;;;7.10;99.90;;;;;;1916896;74;21133;-88
2022/11/19 01:54:32;;;;;;;6.45;3.60;;;7.10;99.90;;;;;;1921885;74;21141;-88
2022/11/19 01:57:24;;;;;;;6.53;3.75;;;7.20;99.90;;;;;;1919695;74;21130;-88
2022/11/19 02:00:17;;;;;;;5.20;3.30;;;7.20;99.90;;;;;;1913370;75;21097;-88
2022/11/19 02:03:10;;;;;;;5.05;3.50;;;7.20;99.90;;;;;;1916842;74;21093;-88
2022/11/19 02:06:02;;;;;;;4.97;3.52;;;7.20;99.90;;;;;;1920882;74;21118;-88
2022/11/19 02:08:54;;;;;;;6.65;3.87;;;7.20;99.90;;;;;;1913352;74;21218;-88
2022/11/19 02:12:01;;;;;;;5.12;3.30;;;7.20;99.90;;;;;;1911778;75;21098;-88
2022/11/19 02:18:34;;;;;;;5.90;3.62;;;7.20;99.90;;;;;;1965763;72;22266;-89
2022/11/19 02:21:33;;;;;;;6.55;3.75;;;7.20;99.90;;;;;;1904596;75;21104;-89
2022/11/19 02:24:35;;;;;;;6.12;4.25;;;7.20;99.90;;;;;;1918502;74;21201;-89
2022/11/19 02:28:00;;;;;;;6.30;3.87;;;7.10;99.90;;;;;;1904858;74;21103;-90
2022/11/19 02:30:55;;;;;;;6.42;4.03;;;7.10;99.90;;;;;;1904114;74;21498;-90
2022/11/19 02:33:49;;;;;;;6.00;3.83;;;7.00;99.90;;;;;;1904637;74;21179;-90
2022/11/19 02:36:44;;;;;;;8.48;4.33;;;7.00;99.90;;;;;;1927812;74;21113;-88
2022/11/19 02:39:39;;;;;;;6.53;4.45;;;7.00;99.90;;;;;;1904870;75;21058;-88
2022/11/19 02:42:34;;;;;;;6.00;4.00;;;7.00;99.90;;;;;;1904913;75;21091;-88
2022/11/19 02:45:29;;;;;;;5.10;4.25;;;7.00;99.90;;;;;;1917772;74;21123;-88
2022/11/19 02:48:25;;;;;;;6.12;3.65;;;7.00;99.90;;;;;;1907657;74;21100;-88
2022/11/19 02:51:18;;;;;;;5.78;3.83;;;7.10;99.90;;;;;;1904621;75;21095;-90
2022/11/19 02:54:10;;;;;;;5.35;4.05;;;7.10;99.90;;;;;;1904477;75;21167;-88
2022/11/19 02:57:01;;;;;;;7.83;4.20;;;7.10;99.90;;;;;;1920405;74;21097;-88
2022/11/19 03:06:19;;;;;;;6.45;4.20;;;7.10;99.90;;;;;;1906951;74;21091;-89
2022/11/19 03:09:11;;;;;;;6.37;3.90;;;7.10;99.90;;;;;;1904784;75;21095;-88
2022/11/19 03:12:09;;;;;;;5.80;4.12;;;7.10;99.90;;;;;;1904437;75;21109;-89
2022/11/19 03:18:16;;;;;;;5.25;3.12;;;7.20;99.90;;;;;;1903913;75;21110;-89
2022/11/19 03:23:54;;;;;;;4.87;3.05;;;7.20;99.90;;;;;;1951551;72;22237;-89
2022/11/19 03:26:49;;;;;;;5.03;2.60;;;7.30;99.90;;;;;;1927115;73;21102;-89
2022/11/19 03:32:26;;;;;;;2.83;2.40;;;7.30;99.90;;;;;;1955150;72;22167;-89
2022/11/19 03:35:20;;;;;;;3.33;2.27;;;7.30;99.90;;;;;;1895622;74;21098;-87
2022/11/19 03:38:15;;;;;;;5.28;2.50;;;7.30;99.90;;;;;;1895285;75;21110;-87
2022/11/19 03:41:08;;;;;;;4.80;2.50;;;7.30;99.90;;;;;;1896303;75;21117;-88
2022/11/19 03:44:03;;;;;;;5.45;2.20;;;7.40;99.90;;;;;;1883248;76;21151;-89
2022/11/19 03:46:58;;;;;;;2.87;2.08;;;7.30;99.90;;;;;;1883379;76;21137;-87
2022/11/19 03:49:53;;;;;;;3.40;2.00;;;7.40;99.90;;;;;;1905633;75;21145;-88
2022/11/19 03:52:45;;;;;;;4.53;2.02;;;7.40;99.90;;;;;;1885551;75;21183;-87
2022/11/19 03:55:39;;;;;;;3.50;2.27;;;7.30;99.90;;;;;;1898291;75;21168;-89
2022/11/19 03:58:38;;;;;;;4.15;2.40;;;7.40;99.90;;;;;;1898229;75;21108;-89
2022/11/19 04:01:30;;;;;;;3.17;2.10;;;7.40;99.90;;;;;;1906852;75;21173;-88
2022/11/19 04:04:37;;;;;;;2.80;1.80;;;7.30;99.90;;;;;;1884156;76;21569;-88
2022/11/19 04:07:28;;;;;;;2.80;1.80;;;7.40;99.90;;;;;;1887754;75;21168;-88
2022/11/19 04:10:19;;;;;;;3.90;2.00;;;7.30;99.90;;;;;;1896718;75;21075;-88
2022/11/19 04:13:11;;;;;;;4.65;1.80;;;7.30;99.90;;;;;;1899548;75;21102;-88
2022/11/19 04:16:02;;;;;;;2.75;1.77;;;7.30;99.90;;;;;;1884533;75;21133;-89
2022/11/19 04:18:54;;;;;;;3.12;1.98;;;7.30;99.90;;;;;;1905144;73;21145;-88
2022/11/19 04:21:45;;;;;;;3.65;2.05;;;7.30;99.90;;;;;;1929826;73;21055;-88
2022/11/19 04:24:36;;;;;;;3.40;2.12;;;7.20;99.90;;;;;;1900382;75;21171;-87
2022/11/19 04:27:28;;;;;;;3.47;2.33;;;7.20;99.90;;;;;;1895189;75;21106;-89
2022/11/19 04:30:20;;;;;;;3.33;2.05;;;7.20;99.90;;;;;;1894551;75;21180;-89
2022/11/19 04:33:11;;;;;;;3.50;2.27;;;7.20;99.90;;;;;;1883340;74;21173;-88
2022/11/19 04:36:03;;;;;;;3.08;2.10;;;7.20;99.90;;;;;;1887630;75;21114;-88
2022/11/19 04:38:54;;;;;;;3.00;1.98;;;7.20;99.90;;;;;;1884270;75;21188;-88
2022/11/19 04:41:46;;;;;;;4.33;1.77;;;7.20;99.90;;;;;;1899589;75;21091;-88
2022/11/19 04:44:37;;;;;;;3.58;2.30;;;7.20;99.90;;;;;;1880419;75;21163;-87
2022/11/19 04:47:29;;;;;;;4.30;2.35;;;7.30;99.90;;;;;;1902760;75;21099;-88
2022/11/19 04:50:20;;;;;;;3.80;2.30;;;7.30;99.90;;;;;;1908653;73;21356;-87
2022/11/19 04:53:12;;;;;;;3.75;2.42;;;7.30;99.90;;;;;;1893371;75;21095;-89
2022/11/19 04:56:03;;;;;;;4.20;2.70;;;7.30;99.90;;;;;;1893148;75;21597;-87
2022/11/19 04:58:54;;;;;;;3.95;2.00;;;7.20;99.90;;;;;;1891865;75;21696;-88
2022/11/19 05:01:48;;;;;;;3.60;2.15;;;7.20;99.90;;;;;;1899113;75;21075;-88
2022/11/19 05:04:39;;;;;;;4.15;2.02;;;7.20;99.90;;;;;;1881770;75;21188;-88
2022/11/19 05:07:30;;;;;;;3.55;2.00;;;7.20;99.90;;;;;;1882692;75;21043;-88
2022/11/19 05:10:22;;;;;;;4.12;2.20;;;7.20;99.90;;;;;;1894067;75;21150;-88
2022/11/19 05:13:13;;;;;;;2.75;1.90;;;7.20;99.90;;;;;;1898921;75;21098;-88
2022/11/19 05:16:05;;;;;;;3.40;2.00;;;7.30;99.90;;;;;;1905061;75;21197;-88
2022/11/19 05:18:57;;;;;;;4.22;2.10;;;7.30;99.90;;;;;;1888650;75;21102;-88
2022/11/19 05:21:48;;;;;;;3.58;2.58;;;7.30;99.90;;;;;;1881856;75;21110;-88
2022/11/19 05:24:39;;;;;;;4.58;2.20;;;7.30;99.90;;;;;;1886550;75;21106;-88
2022/11/19 05:27:31;;;;;;;3.85;2.10;;;7.30;99.90;;;;;;1882457;75;21052;-88
2022/11/19 05:30:22;;;;;;;4.92;2.20;;;7.30;99.90;;;;;;1903651;75;21164;-88
2022/11/19 05:33:14;;;;;;;4.40;2.10;;;7.20;99.90;;;;;;1874052;75;21228;-89
2022/11/19 05:36:07;;;;;;;3.08;2.25;;;7.20;99.90;;;;;;1899050;75;21101;-88
2022/11/19 05:38:59;;;;;;;5.10;2.27;;;7.20;99.90;;;;;;1900194;75;21093;-88
2022/11/19 05:41:50;;;;;;;5.65;1.95;;;7.20;99.90;;;;;;1909002;75;21128;-88
2022/11/19 05:44:42;;;;;;;4.10;2.52;;;7.20;99.90;;;;;;1909998;75;21094;-87
2022/11/19 05:47:33;;;;;;;4.15;2.37;;;7.20;99.90;;;;;;1898980;75;21144;-88
2022/11/19 05:50:25;;;;;;;4.20;2.70;;;7.10;99.90;;;;;;1893786;75;22220;-88
2022/11/19 05:53:16;;;;;;;5.90;5.30;;;7.20;99.90;;;;;;1867706;76;21565;-88
2022/11/19 05:56:08;;;;;;;9.38;6.62;;;7.10;99.90;;;;;;1902099;75;21098;-88
2022/11/19 05:59:00;;;;;;;6.75;5.85;;;7.20;99.90;;;;;;1901335;75;21046;-88
2022/11/19 06:01:51;;;;;;;7.67;4.85;;;7.20;99.90;;;;;;1864180;75;21105;-88
2022/11/19 06:04:42;;;;;;;4.78;3.65;;;7.10;99.90;;;;;;1881747;75;21078;-87
2022/11/19 06:07:37;;;;;;;4.45;2.95;;;7.10;99.90;;;;;;1902794;75;21116;-89
2022/11/19 06:10:28;;;;;;;3.95;2.72;;;7.10;99.90;;;;;;1881253;76;21105;-89
2022/11/19 06:13:19;;;;;;;5.80;3.22;;;7.10;99.90;;;;;;1897827;75;21093;-88
2022/11/19 06:16:11;;;;;;;3.70;2.52;;;7.10;99.90;;;;;;1892682;75;21098;-89
2022/11/19 06:19:03;;;;;;;3.67;2.50;;;7.10;99.90;;;;;;1884286;75;21171;-88
2022/11/19 06:21:54;;;;;;;4.80;2.70;;;7.10;99.90;;;;;;1904836;75;21183;-88
2022/11/19 06:24:46;;;;;;;3.83;2.50;;;7.00;99.90;;;;;;1894674;75;21116;-88
2022/11/19 06:27:37;;;;;;;4.65;2.65;;;7.10;99.90;;;;;;1893693;75;21424;-88
2022/11/19 06:30:29;;;;;;;3.70;2.60;;;7.10;99.90;;;;;;1868411;76;21139;-88
2022/11/19 06:33:20;;;;;;;3.85;2.45;;;7.10;99.90;;;;;;1905921;74;21120;-88
2022/11/19 06:36:12;;;;;;;3.37;2.40;;;7.10;99.90;;;;;;1898934;75;21090;-88
2022/11/19 06:39:04;;;;;;;3.95;2.58;;;7.00;99.90;;;;;;1891666;73;21093;-88
2022/11/19 06:42:34;;;;;;;4.55;2.70;;;7.00;99.90;;;;;;1880943;75;21179;-88
2022/11/19 06:44:49;;;;;;;4.97;2.22;;;7.00;99.90;;;;;;1886129;75;21184;-88
2022/11/19 06:47:42;;;;;;;3.95;2.70;;;7.00;99.90;;;;;;1913196;75;21150;-89
2022/11/19 06:50:33;;;;;;;3.80;2.60;;;7.00;99.90;;;;;;1880562;75;21219;-88
2022/11/19 06:53:25;;;;;;;3.85;2.27;;;7.00;99.90;;;;;;1882405;76;21202;-88
2022/11/19 06:56:16;;;;;;;5.33;3.50;;;7.10;99.90;;;;;;1902420;75;21096;-88
2022/11/19 06:59:08;;;;;;;3.33;2.42;;;7.10;99.90;;;;;;1880537;76;21316;-88
2022/11/19 07:02:00;;;;;;;4.65;2.47;;;7.10;99.90;;;;;;1898338;75;21174;-88
2022/11/19 07:04:51;;;;;;;4.40;2.12;;;7.20;99.90;;;;;;1857538;76;21106;-88
2022/11/19 07:07:44;;;;;;;3.47;2.20;;;7.10;99.90;;;;;;1883373;75;21089;-88
2022/11/19 07:10:36;;;;;;;5.58;2.30;;;7.20;99.90;;;;;;1901218;75;21151;-88
2022/11/19 07:16:37;;;;;;;3.20;2.10;;;7.20;99.90;;;;;;2079669;68;22149;-88
2022/11/19 07:19:29;;;;;;;4.25;2.10;;;7.20;99.90;;;;;;2046078;69;21123;-89
2022/11/19 07:22:20;;;;;;;3.52;2.40;;;7.20;99.90;;;;;;2034109;69;21031;-90
2022/11/19 07:25:12;;;;;;;4.55;2.37;;;7.30;99.90;;;;;;2033215;70;21039;-88
2022/11/19 07:28:03;;;;;;;4.00;2.37;;;7.30;99.90;;;;;;2056145;69;21070;-89
2022/11/19 07:30:56;;;;;;;3.52;2.22;;;7.30;99.90;;;;;;2033048;70;21140;-89
2022/11/19 07:33:48;;;;;;;4.20;2.37;;;7.30;99.90;;;;;;2057321;69;21151;-90
2022/11/19 07:36:40;;;;;;;3.95;2.42;;;7.30;99.90;;;;;;2037258;69;21155;-89
2022/11/19 07:39:31;;;;;;;5.05;2.42;;;7.30;99.90;;;;;;2033883;70;21018;-89
2022/11/19 07:45:32;;;;;;;3.08;2.40;;;7.40;99.90;;;;;;2048569;69;21120;-89
2022/11/19 07:48:23;;;;;;;4.33;2.60;;;7.50;99.90;;;;;;2032346;69;21462;-90
2022/11/19 07:51:15;;;;;;;5.33;2.80;;;7.60;99.90;;;;;;2030943;70;21250;-90
2022/11/19 07:54:08;;;;;;;3.92;2.35;;;7.60;99.90;;;;;;2031241;70;21168;-88
2022/11/19 07:56:59;;;;;;;6.75;3.17;;;7.60;99.90;;;;;;2031184;70;21058;-88
2022/11/19 07:59:50;;;;;;;3.15;2.42;;;7.60;99.90;;;;;;2032556;69;21137;-88
2022/11/19 08:02:42;;;;;;;4.10;2.50;;;7.60;99.90;;;;;;2037529;69;21124;-88
2022/11/19 08:05:33;;;;;;;5.28;2.10;;;7.50;99.90;;;;;;2031669;70;21064;-88
2022/11/19 08:08:25;;;;;;;3.65;2.00;;;7.50;99.90;;;;;;2031118;70;21030;-88
2022/11/19 08:11:18;;;;;;;5.62;2.60;;;7.50;99.90;;;;;;2031194;70;21085;-87
2022/11/19 08:14:11;;;;;;;3.22;2.25;;;7.40;99.90;;;;;;2033130;70;21109;-88
2022/11/19 08:20:14;;;;;;;3.95;2.67;;;7.50;99.90;;;;;;2033141;70;21446;-88
2022/11/19 08:23:06;;;;;;;3.60;2.40;;;7.50;99.90;;;;;;2031037;70;21112;-89
2022/11/19 08:25:59;;;;;;;3.95;2.25;;;7.60;99.90;;;;;;2032660;70;21090;-88
2022/11/19 08:28:53;;;;;;;3.77;2.55;;;7.70;99.90;;;;;;2031473;70;21118;-88
2022/11/19 08:31:46;;;;;;;3.42;2.47;;;7.70;99.90;;;;;;2034469;69;21160;-88
2022/11/19 08:34:38;;;;;;;2.83;2.10;;;7.80;99.90;;;;;;2045656;69;21522;-88
2022/11/19 08:37:29;;;;;;;3.33;2.45;;;7.90;99.90;;;;;;2044147;70;21186;-88
2022/11/19 08:40:21;;;;;;;5.20;2.72;;;8.00;99.90;;;;;;2056076;69;21067;-81
2022/11/19 08:43:12;;;;;;;4.83;2.60;;;8.00;99.90;;;;;;2061308;69;21085;-77
2022/11/19 08:46:03;;;;;;;4.72;2.90;;;8.10;99.90;;;;;;2044047;69;21087;-77
2022/11/19 08:48:56;;;;;;;3.20;2.45;;;8.20;99.90;;;;;;2049231;69;21085;-77
2022/11/19 08:51:47;;;;;;;5.05;2.75;;;8.20;99.90;;;;;;2031757;70;21090;-79
2022/11/19 08:54:39;;;;;;;4.00;2.75;;;8.30;99.90;;;;;;2031704;70;21104;-78
2022/11/19 08:57:30;;;;;;;5.67;2.70;;;8.40;99.90;;;;;;1986932;72;21089;-77
2022/11/19 09:00:23;;;;;;;4.37;2.98;;;8.40;99.90;;;;;;2041494;70;21077;-77
2022/11/19 09:03:14;;;;;;;6.95;4.47;;;8.40;99.90;;;;;;2031645;70;21238;-77
2022/11/19 09:06:07;;;;;;;5.15;3.70;;;8.40;99.90;;;;;;2039971;69;21078;-77
2022/11/19 09:08:58;;;;;;;5.53;3.75;;;8.50;99.90;;;;;;2039085;69;21164;-77
2022/11/19 09:11:49;;;;;;;4.37;3.15;;;8.60;99.90;;;;;;2032589;70;21099;-77
2022/11/19 09:14:40;;;;;;;4.60;3.12;;;8.70;99.90;;;;;;2031887;70;21059;-77
2022/11/19 09:17:32;;;;;;;4.22;2.87;;;8.60;99.90;;;;;;2031581;70;21148;-77
2022/11/19 09:20:23;;;;;;;4.42;2.72;;;8.70;99.90;;;;;;2049765;69;21057;-77
2022/11/19 09:23:19;;;;;;;6.65;4.28;;;8.70;99.90;;;;;;2044943;69;21073;-78
2022/11/19 09:26:16;;;;;;;4.95;3.75;;;8.80;99.90;;;;;;1989145;71;21189;-78
2022/11/19 09:29:11;;;;;;;5.92;3.02;;;9.00;99.90;;;;;;1919072;74;21107;-78
2022/11/19 09:32:04;;;;;;;4.60;2.77;;;8.90;99.90;;;;;;2025235;70;21140;-78
2022/11/19 09:35:00;;;;;;;6.62;3.12;;;8.90;99.90;;;;;;2019971;70;21050;-78
2022/11/19 09:37:58;;;;;;;4.97;2.85;;;8.80;99.90;;;;;;2018763;71;21128;-78
2022/11/19 09:40:53;;;;;;;4.25;2.85;;;8.90;99.90;;;;;;2035605;70;21083;-78
2022/11/19 09:46:29;;;;;;;3.92;2.60;;;9.10;99.90;;;;;;1946561;72;22308;-79
2022/11/19 09:49:24;;;;;;;5.12;2.98;;;9.10;99.90;;;;;;1938749;73;21198;-77
2022/11/19 09:52:19;;;;;;;4.83;2.67;;;9.20;99.90;;;;;;1932206;73;21198;-78
2022/11/19 09:55:16;;;;;;;4.42;2.70;;;9.30;99.90;;;;;;1916349;75;21118;-78
2022/11/19 09:58:12;;;;;;;3.95;2.62;;;9.30;99.90;;;;;;1916492;75;21119;-77
2022/11/19 10:01:04;;;;;;;7.40;4.80;;;9.40;99.90;;;;;;1921710;73;21122;-78
2022/11/19 10:03:56;;;;;;;4.92;2.70;;;9.50;99.90;;;;;;1927642;73;21139;-77
2022/11/19 10:06:50;;;;;;;6.40;3.00;;;9.50;99.90;;;;;;1916582;75;21410;-77
2022/11/19 10:09:56;;;;;;;5.40;2.90;;;9.60;99.90;;;;;;1916435;75;21599;-77
2022/11/19 10:13:10;;;;;;;3.58;2.80;;;9.70;99.90;;;;;;1916666;75;21190;-77
2022/11/19 10:15:58;;;;;;;4.15;2.60;;;9.70;99.90;;;;;;1916378;75;21187;-78
2022/11/19 10:18:53;;;;;;;8.15;3.00;;;9.70;99.90;;;;;;1915788;75;21117;-78
2022/11/19 10:21:47;;;;;;;5.50;3.00;;;9.80;99.90;;;;;;1937829;73;21074;-78
2022/11/19 10:24:42;;;;;;;2.87;2.25;;;9.80;99.90;;;;;;1916611;75;21212;-77
2022/11/19 10:27:37;;;;;;;3.33;2.62;;;9.80;99.90;;;;;;1916688;75;21095;-77
2022/11/19 10:30:31;;;;;;;5.47;3.17;;;9.90;99.90;;;;;;1924239;73;21212;-77
2022/11/19 10:33:26;;;;;;;4.15;2.90;;;10.00;99.90;;;;;;1924330;73;21123;-78
2022/11/19 10:36:21;;;;;;;6.83;3.45;;;10.20;99.90;;;;;;1858979;76;21560;-78
2022/11/19 10:39:19;;;;;;;4.90;3.08;;;10.20;99.90;;;;;;1924831;74;21160;-78
2022/11/19 10:42:16;;;;;;;6.97;2.80;;;10.10;99.90;;;;;;1915995;75;21103;-78
2022/11/19 10:45:12;;;;;;;3.50;2.65;;;10.20;99.90;;;;;;1915016;75;21115;-78
2022/11/19 10:48:06;;;;;;;5.22;2.65;;;10.10;99.90;;;;;;1916576;75;21113;-77
2022/11/19 10:51:01;;;;;;;3.92;2.72;;;10.10;99.90;;;;;;1916234;75;21156;-77
2022/11/19 10:53:53;;;;;;;3.65;2.80;;;10.20;99.90;;;;;;1920441;74;21805;-77
2022/11/19 10:56:45;;;;;;;4.25;2.60;;;10.30;99.90;;;;;;1916077;75;21111;-78
2022/11/19 10:59:39;;;;;;;3.55;2.60;;;10.40;99.90;;;;;;1903327;75;21054;-77
2022/11/19 11:02:35;;;;;;;4.17;2.62;;;10.40;99.90;;;;;;1903576;75;21092;-79
2022/11/19 11:05:26;;;;;;;4.75;2.80;;;10.70;99.90;;;;;;1915865;74;21176;-78
2022/11/19 11:08:17;;;;;;;4.50;2.50;;;10.80;99.90;;;;;;1903111;73;21070;-78
2022/11/19 11:11:09;;;;;;;3.95;2.67;;;10.90;99.90;;;;;;1903301;73;21133;-78
2022/11/19 11:17:24;;;;;;;3.45;2.70;;;11.00;99.90;;;;;;1908586;75;21129;-78
2022/11/19 11:20:27;;;;;;;3.30;2.47;;;10.90;99.90;;;;;;1915616;75;21111;-78
2022/11/19 11:23:21;;;;;;;3.15;1.75;;;10.80;99.90;;;;;;1915561;75;21168;-77
2022/11/19 11:26:14;;;;;;;3.15;2.35;;;10.80;99.90;;;;;;1919618;74;21588;-77
2022/11/19 11:29:08;;;;;;;2.15;1.57;;;10.80;99.90;;;;;;1914872;74;21115;-77
2022/11/19 11:32:00;;;;;;;2.22;1.30;;;10.90;99.90;;;;;;1920694;73;21190;-77
2022/11/19 11:34:52;;;;;;;3.20;2.30;;;10.80;99.90;;;;;;1917509;73;21157;-80
2022/11/19 11:37:44;;;;;;;2.52;1.50;;;10.90;99.90;;;;;;1915936;75;21107;-79
2022/11/19 11:40:35;;;;;;;2.70;1.57;;;10.90;99.90;;;;;;1917298;74;21176;-78
2022/11/19 11:43:28;;;;;;;2.92;1.75;;;10.90;99.90;;;;;;1918451;73;21182;-79
2022/11/19 11:46:20;;;;;;;4.00;1.98;;;10.80;99.90;;;;;;1917646;74;21207;-78
2022/11/19 11:49:22;;;;;;;2.27;1.20;;;10.80;99.90;;;;;;1936943;74;21172;-78
2022/11/19 11:52:21;;;;;;;2.60;0.95;;;10.70;99.90;;;;;;1910619;75;21438;-79
2022/11/19 11:55:21;;;;;;;1.57;1.00;;;10.60;99.90;;;;;;1919538;74;21172;-79
2022/11/19 11:58:29;;;;;;;2.17;1.32;;;10.50;99.90;;;;;;1911172;74;21099;-79
2022/11/19 12:01:22;;;;;;;1.70;1.10;;;10.60;99.90;;;;;;1932849;74;21122;-79
2022/11/19 12:04:14;;;;;;;1.20;0.98;;;10.40;99.90;;;;;;1924839;74;21148;-79
2022/11/19 12:07:12;;;;;;;3.00;1.40;;;10.40;99.90;;;;;;1821621;77;21162;-78
2022/11/19 12:10:12;;;;;;;2.20;1.40;;;10.50;99.90;;;;;;1882352;76;21240;-78
2022/11/19 12:13:33;;;;;;;1.75;1.35;;;10.60;99.90;;;;;;1915754;74;21176;-77
2022/11/19 12:19:57;;;;;;;2.27;1.57;;;10.80;99.90;;;;;;1954119;72;22178;-79
2022/11/19 12:22:56;;;;;;;3.15;1.12;;;10.80;99.90;;;;;;1898612;73;21106;-77
2022/11/19 12:25:52;;;;;;;1.75;1.20;;;10.80;99.90;;;;;;1905880;75;21663;-77
2022/11/19 12:28:52;;;;;;;2.30;1.30;;;10.80;99.90;;;;;;1911907;75;21197;-78
2022/11/19 12:31:51;;;;;;;2.67;1.10;;;10.80;99.90;;;;;;1894778;75;21126;-77
2022/11/19 12:34:59;;;;;;;2.27;1.40;;;10.80;99.90;;;;;;1895321;75;21106;-77
2022/11/19 12:38:11;;;;;;;2.12;1.40;;;10.80;99.90;;;;;;1898722;73;21341;-78
2022/11/19 12:41:14;;;;;;;1.75;1.20;;;10.80;99.90;;;;;;1902402;75;21051;-77
2022/11/19 12:44:09;;;;;;;1.40;1.10;;;10.80;99.90;;;;;;1919472;74;21135;-78
2022/11/19 12:49:55;;;;;;;2.42;1.62;;;10.80;99.90;;;;;;1946123;72;22188;-79
2022/11/19 12:52:55;;;;;;;1.70;1.20;;;10.80;99.90;;;;;;1939412;73;21051;-79
2022/11/19 12:55:52;;;;;;;2.92;1.30;;;10.80;99.90;;;;;;1916298;75;21212;-78
2022/11/19 12:58:46;;;;;;;2.05;1.22;;;10.80;99.90;;;;;;1916229;75;21678;-77
2022/11/19 13:01:40;;;;;;;2.20;1.20;;;10.70;99.90;;;;;;1928776;73;21197;-79
2022/11/19 13:04:35;;;;;;;1.82;1.20;;;10.60;99.90;;;;;;1919845;73;21569;-79
2022/11/19 13:07:30;;;;;;;1.80;1.37;;;10.60;99.90;;;;;;1916711;75;21106;-79
2022/11/19 13:10:26;;;;;;;1.47;1.27;;;10.70;99.90;;;;;;1916859;75;21631;-77
2022/11/19 13:13:21;;;;;;;3.33;1.40;;;10.60;99.90;;;;;;1916538;75;21114;-77
2022/11/19 13:16:15;;;;;;;1.45;1.20;;;10.60;99.90;;;;;;1916703;75;21098;-78
2022/11/19 13:19:16;;;;;;;2.30;1.22;;;10.80;99.90;;;;;;1916667;75;21087;-77
2022/11/19 13:22:13;;;;;;;2.33;1.10;;;10.80;99.90;;;;;;1916248;75;21157;-78
2022/11/19 13:25:08;;;;;;;2.50;1.40;;;10.70;99.90;;;;;;1917419;73;21121;-77
2022/11/19 13:28:02;;;;;;;2.10;1.17;;;10.80;99.90;;;;;;1930878;73;21168;-77
2022/11/19 13:30:56;;;;;;;2.10;1.00;;;10.90;99.90;;;;;;1916151;75;21109;-77
2022/11/19 13:33:51;;;;;;;1.60;1.00;;;10.90;99.90;;;;;;1915577;73;21524;-77
2022/11/19 13:36:45;;;;;;;0.90;0.88;;;10.80;99.90;;;;;;1916368;75;21187;-77
2022/11/19 13:39:39;;;;;;;2.27;1.32;;;10.80;99.90;;;;;;1916516;73;21103;-77
2022/11/19 13:45:16;;;;;;;1.65;1.25;;;10.70;99.90;;;;;;1940652;72;22287;-79
2022/11/19 13:48:12;;;;;;;2.00;1.10;;;10.60;99.90;;;;;;1917002;75;21051;-79
2022/11/19 13:51:08;;;;;;;1.20;1.10;;;10.60;99.90;;;;;;1920543;74;21072;-78
2022/11/19 13:54:01;;;;;;;1.50;1.10;;;10.60;99.90;;;;;;1916603;75;21105;-77
2022/11/19 13:56:57;;;;;;;3.33;1.22;;;10.70;99.90;;;;;;1893821;75;21196;-77
2022/11/19 13:59:49;;;;;;;2.47;1.12;;;10.70;99.90;;;;;;1918064;74;21108;-77
2022/11/19 14:03:03;;;;;;;1.70;0.98;;;10.70;99.90;;;;;;1918383;74;21101;-77
2022/11/19 14:06:23;;;;;;;1.07;0.98;;;10.70;99.90;;;;;;1917612;74;21176;-78
2022/11/19 14:09:25;;;;;;;1.98;0.70;;;10.80;99.90;;;;;;1920835;74;21143;-78
2022/11/19 14:12:43;;;;;;;1.77;0.90;;;10.90;99.90;;;;;;1920848;74;21155;-77
2022/11/19 14:28:57;;;;;;;0.95;0.72;;;10.70;99.90;;;;;;1918944;74;21081;-78
2022/11/19 14:32:19;;;;;;;1.70;1.02;;;10.50;99.90;;;;;;1918681;74;21142;-78
2022/11/19 14:35:48;;;;;;;2.42;0.82;;;10.30;99.90;;;;;;1916500;74;21198;-78
2022/11/19 14:38:48;;;;;;;2.08;1.10;;;10.20;99.90;;;;;;1916398;74;21674;-77
2022/11/19 14:41:43;;;;;;;1.98;0.80;;;10.10;99.90;;;;;;1917371;74;21342;-78
2022/11/19 14:44:36;;;;;;;1.32;0.90;;;10.10;99.90;;;;;;1910945;75;21118;-78
2022/11/19 14:47:34;;;;;;;1.35;0.80;;;10.00;99.90;;;;;;1898738;75;21051;-78
2022/11/19 14:50:29;;;;;;;0.93;0.60;;;10.00;99.90;;;;;;1913645;75;21163;-77
2022/11/19 14:53:21;;;;;;;0.70;0.50;;;9.90;99.90;;;;;;1907196;75;21342;-78
2022/11/19 14:56:14;;;;;;;1.05;0.53;;;9.80;99.90;;;;;;1906804;75;21146;-78
2022/11/19 14:59:19;;;;;;;0.40;0.40;;;9.70;99.90;;;;;;1906877;75;21110;-78
2022/11/19 15:02:20;;;;;;;0.57;0.40;;;9.60;99.90;;;;;;1919772;74;21143;-78
2022/11/19 15:05:20;;;;;;;0.88;0.60;;;9.50;99.90;;;;;;1902577;74;21129;-78
2022/11/19 15:08:34;;;;;;;0.40;0.40;;;9.40;99.90;;;;;;1897656;74;21159;-78
2022/11/19 15:11:49;;;;;;;0.42;0.35;;;9.40;99.90;;;;;;1916158;74;21137;-79
2022/11/19 15:15:03;;;;;;;0.80;0.57;;;9.40;99.90;;;;;;1896505;75;21142;-77
2022/11/19 15:17:35;;;;;;;0.75;0.50;;;9.40;99.90;;;;;;1917648;74;21215;-79
2022/11/19 15:20:30;;;;;;;0.82;0.50;;;9.40;99.90;;;;;;1894137;75;21156;-78
2022/11/19 15:23:24;;;;;;;2.08;0.80;;;9.50;99.90;;;;;;1880369;75;21551;-80
2022/11/19 15:26:19;;;;;;;0.62;0.40;;;9.50;99.90;;;;;;1888199;75;21090;-79
2022/11/19 15:32:02;;;;;;;1.45;0.50;;;9.50;99.90;;;;;;1948998;72;22249;-80
2022/11/19 15:35:14;;;;;;;1.55;0.65;;;9.50;99.90;;;;;;1906183;75;21180;-80
2022/11/19 15:38:10;;;;;;;1.95;0.78;;;9.60;99.90;;;;;;1891451;75;21368;-79
2022/11/19 15:41:05;;;;;;;1.30;0.90;;;9.60;99.90;;;;;;1903604;75;21883;-78
2022/11/19 15:43:59;;;;;;;1.30;0.60;;;9.60;99.90;;;;;;1911969;75;21080;-79
2022/11/19 15:46:53;;;;;;;0.65;0.55;;;9.70;99.90;;;;;;1908541;74;21654;-78
2022/11/19 15:49:46;;;;;;;1.10;0.50;;;9.70;99.90;;;;;;1884759;75;21230;-78
2022/11/19 15:55:21;;;;;;;1.32;0.68;;;9.50;99.90;;;;;;1953990;72;22146;-79
2022/11/19 15:58:15;;;;;;;1.12;0.70;;;9.50;99.90;;;;;;1895213;75;21167;-79
2022/11/19 16:01:09;;;;;;;1.12;0.80;;;9.40;99.90;;;;;;1886723;75;21146;-79
2022/11/19 16:04:06;;;;;;;3.08;0.70;;;9.40;99.90;;;;;;1885080;75;21137;-78
2022/11/19 16:06:58;;;;;;;1.30;0.80;;;9.30;99.90;;;;;;1902180;75;21150;-78
2022/11/19 16:19:05;;;;;;;2.22;0.82;;;9.20;99.90;;;;;;1889996;75;21115;-77
2022/11/19 16:22:00;;;;;;;1.92;0.72;;;9.30;99.90;;;;;;1883723;76;21127;-78
2022/11/19 16:25:02;;;;;;;1.90;0.70;;;9.30;99.90;;;;;;1875084;76;21113;-78
2022/11/19 16:27:56;;;;;;;1.12;0.68;;;9.40;99.90;;;;;;1900323;75;21145;-77
2022/11/19 16:30:58;;;;;;;0.90;0.50;;;9.40;99.90;;;;;;1904563;75;21578;-77